Radisson, New York
Current Conditions -  °F | °C
As of 6:54 AM on Monday 26 Jan 2015 (Local Time) from KFZY Reporting Station
Overcast Overcast  
Wind Chill: -5°   Ceiling: 10000
Heat Index:   Visibility: 10mi
Dew Point: -6°   Wind: 5mph
Humidity: 64%   Direction: 60°ENE
Pressure: 30.03"   Gusts: NA
Location:  43.1825°N, 76.3664°W
Report Text: KFZY 261154Z AUTO 06004KT 10SM OVC100 M16/M21 A3003 RMK AO2 SLP181 T11561211 11156 21189 55012
Loading
Personal Weather Stations






























Interactive Weather Map New forecast layout! Learn more

10-Day Weather Forecast

Advertisements
Track Severe Weather on mobile